Time;durP1;ratioP1;P1;durP2;ratioP2;P2;SDS_P1;SDS_P2;PMS_P1;PMS_P2;Temp;Humidity;BMP_temperature;BMP_pressure;BME280_temperature;BME280_humidity;BME280_pressure;Samples;Min_cycle;Max_cycle;Signal;HPM_P1;HPM_P2
2023/04/09 00:12:11;;;;;;;61.50;31.20;;;;;;;13.51;63.91;101211.65;682610;1259;139041;-84
2023/04/09 00:27:14;;;;;;;52.70;27.40;;;;;;;13.41;64.41;101211.73;682492;1262;139097;-85
2023/04/09 00:42:17;;;;;;;38.90;21.70;;;;;;;13.32;64.58;101210.03;682560;1261;138960;-85
2023/04/09 00:57:20;;;;;;;27.00;15.30;;;;;;;13.16;64.62;101199.46;682515;1262;139077;-84
2023/04/09 01:13:02;;;;;;;25.30;14.30;;;;;;;12.92;65.11;101192.66;682707;1260;139052;-83
2023/04/09 01:28:06;;;;;;;22.40;13.60;;;;;;;12.77;65.27;101191.13;682330;1262;139273;-85
2023/04/09 01:43:12;;;;;;;69.50;35.20;;;;;;;12.47;65.67;101194.05;682857;1262;139157;-83
2023/04/09 01:58:17;;;;;;;27.70;16.80;;;;;;;12.09;66.66;101205.21;682666;1261;139302;-85
2023/04/09 02:13:22;;;;;;;31.60;18.60;;;;;;;11.64;67.24;101198.06;682471;1259;138792;-83
2023/04/09 02:28:25;;;;;;;32.70;18.10;;;;;;;11.37;67.48;101200.27;682634;1262;141872;-84
2023/04/09 02:43:29;;;;;;;31.50;18.50;;;;;;;11.20;67.72;101203.98;682342;1263;138741;-84
2023/04/09 02:58:32;;;;;;;33.60;19.40;;;;;;;11.01;67.56;101198.45;682391;1263;138893;-84
2023/04/09 03:13:35;;;;;;;40.00;21.70;;;;;;;10.73;67.84;101193.67;682153;1263;139124;-84
2023/04/09 03:28:38;;;;;;;41.60;21.50;;;;;;;10.42;68.05;101183.65;682263;1264;138870;-84
2023/04/09 03:43:42;;;;;;;44.60;21.90;;;;;;;10.32;68.37;101183.54;682244;1264;139331;-83
2023/04/09 03:58:48;;;;;;;52.60;22.90;;;;;;;10.23;69.27;101185.58;682483;1264;139001;-84
2023/04/09 04:13:54;;;;;;;43.20;20.70;;;;;;;10.15;69.48;101184.55;682343;1265;138806;-84
2023/04/09 04:28:58;;;;;;;42.50;20.60;;;;;;;10.11;70.04;101196.18;682400;1263;138879;-85
2023/04/09 04:44:22;;;;;;;41.10;20.20;;;;;;;10.20;71.27;101196.45;682582;1265;138781;-83
2023/04/09 04:59:30;;;;;;;41.30;18.80;;;;;;;10.28;71.95;101207.27;682665;1262;138718;-86
2023/04/09 05:14:38;;;;;;;47.00;21.20;;;;;;;10.32;72.51;101209.60;682502;1262;138980;-85
2023/04/09 05:29:44;;;;;;;44.60;20.40;;;;;;;10.39;73.51;101216.08;682671;1262;139227;-85
2023/04/09 05:44:48;;;;;;;116.20;57.50;;;;;;;10.45;73.76;101220.73;682537;1262;139012;-86
2023/04/09 05:59:54;;;;;;;184.90;82.20;;;;;;;10.68;74.33;101228.52;682609;1262;138855;-85
2023/04/09 06:14:57;;;;;;;49.30;24.20;;;;;;;10.83;75.55;101237.20;682579;1263;139249;-86
2023/04/09 06:30:02;;;;;;;31.70;17.00;;;;;;;11.03;75.38;101247.84;682710;1262;138863;-85
2023/04/09 06:45:07;;;;;;;38.00;20.00;;;;;;;11.22;77.25;101263.42;682472;1263;139379;-85
2023/04/09 07:00:11;;;;;;;26.40;16.30;;;;;;;11.42;77.34;101278.49;682428;1263;138945;-87
2023/04/09 07:15:15;;;;;;;32.30;19.50;;;;;;;11.58;77.78;101286.97;682510;1262;139219;-87
2023/04/09 07:30:18;;;;;;;25.10;15.00;;;;;;;11.82;77.23;101292.65;682539;1266;138966;-86
2023/04/09 07:45:22;;;;;;;24.00;13.50;;;;;;;12.02;76.90;101295.73;682406;1260;139063;-86
2023/04/09 08:00:25;;;;;;;23.80;13.00;;;;;;;12.22;76.63;101295.55;682542;1262;138815;-85
2023/04/09 08:15:28;;;;;;;20.40;11.70;;;;;;;12.49;76.58;101296.74;682556;1265;139081;-86
2023/04/09 08:30:33;;;;;;;23.90;13.00;;;;;;;12.76;76.53;101295.11;682499;1262;138718;-86
2023/04/09 08:45:40;;;;;;;21.90;13.50;;;;;;;13.39;76.06;101286.48;682388;1263;138865;-87
2023/04/09 09:00:44;;;;;;;23.50;13.40;;;;;;;13.74;76.24;101282.63;682466;1262;139764;-87
2023/04/09 09:15:55;;;;;;;33.70;17.20;;;;;;;14.26;75.86;101286.09;682227;1264;138796;-87
2023/04/09 09:31:07;;;;;;;37.00;20.70;;;;;;;14.55;76.05;101293.21;682380;1260;139916;-86
2023/04/09 09:46:11;;;;;;;26.10;15.30;;;;;;;14.47;77.89;101299.34;682493;1265;139289;-87
2023/04/09 10:01:18;;;;;;;20.90;12.90;;;;;;;14.57;78.44;101302.20;682472;1263;139216;-86
2023/04/09 10:16:23;;;;;;;21.80;12.70;;;;;;;14.88;78.11;101298.05;682389;1263;139599;-85
2023/04/09 10:31:26;;;;;;;24.40;13.30;;;;;;;15.44;77.99;101288.59;682453;1263;139163;-88
2023/04/09 10:46:39;;;;;;;15.30;9.80;;;;;;;15.81;76.77;101284.74;682293;1262;139113;-86
2023/04/09 11:01:52;;;;;;;39.40;21.20;;;;;;;16.03;76.01;101285.86;682323;1260;139599;-86
2023/04/09 11:16:55;;;;;;;21.70;13.10;;;;;;;16.24;75.92;101287.77;682644;1260;139157;-87
2023/04/09 11:31:59;;;;;;;84.60;38.70;;;;;;;16.52;75.37;101281.67;682427;1260;140081;-86
2023/04/09 11:47:02;;;;;;;28.70;17.00;;;;;;;17.00;75.15;101280.04;682692;1260;139540;-86
2023/04/09 12:02:06;;;;;;;24.10;14.00;;;;;;;17.56;74.27;101281.73;682223;1263;139051;-87
2023/04/09 12:17:10;;;;;;;17.50;11.30;;;;;;;18.14;73.61;101274.33;682384;1260;139000;-87
2023/04/09 12:32:13;;;;;;;18.80;11.10;;;;;;;18.47;72.25;101268.77;682234;1260;139493;-86
2023/04/09 12:47:17;;;;;;;22.30;12.30;;;;;;;19.02;70.99;101266.84;682488;1260;139027;-86
2023/04/09 13:02:20;;;;;;;12.60;9.40;;;;;;;20.20;70.23;101257.30;682482;1260;139215;-88
2023/04/09 13:17:24;;;;;;;17.90;11.00;;;;;;;20.79;67.17;101246.42;682489;1265;138666;-88
2023/04/09 13:32:28;;;;;;;24.40;15.40;;;;;;;20.70;66.77;101234.20;682337;1260;139154;-87
2023/04/09 13:47:31;;;;;;;18.20;12.50;;;;;;;20.68;65.21;101226.24;682461;1262;138869;-86
2023/04/09 14:02:35;;;;;;;13.60;9.90;;;;;;;21.27;64.85;101221.70;682744;1259;138288;-87
2023/04/09 14:17:39;;;;;;;14.30;10.80;;;;;;;22.38;63.35;101209.89;682587;1259;138344;-88
2023/04/09 14:32:43;;;;;;;20.50;13.30;;;;;;;22.34;62.01;101201.40;682470;1259;138473;-86
2023/04/09 14:47:46;;;;;;;42.20;22.20;;;;;;;21.12;62.91;101191.85;681768;1263;138223;-87
2023/04/09 15:02:50;;;;;;;28.00;17.50;;;;;;;20.03;63.85;101183.80;681373;1266;138229;-88
2023/04/09 15:17:53;;;;;;;39.10;21.60;;;;;;;19.22;65.42;101188.02;681518;1266;138399;-87
2023/04/09 15:32:57;;;;;;;28.70;16.10;;;;;;;18.72;66.81;101197.71;681428;1262;139097;-87
2023/04/09 15:48:00;;;;;;;35.10;19.20;;;;;;;18.34;67.65;101191.52;681527;1266;138789;-87
2023/04/09 16:03:04;;;;;;;27.60;16.40;;;;;;;17.72;69.23;101193.43;681544;1263;139343;-88
2023/04/09 16:18:08;;;;;;;54.20;27.20;;;;;;;17.61;69.95;101205.63;681620;1266;139156;-87
2023/04/09 16:33:12;;;;;;;40.90;21.10;;;;;;;17.29;70.44;101218.95;681695;1263;139411;-87
2023/04/09 16:48:16;;;;;;;74.60;35.70;;;;;;;17.14;70.96;101213.78;681752;1266;138990;-87
2023/04/09 17:03:22;;;;;;;40.80;25.00;;;;;;;17.08;71.80;101218.39;681633;1266;138783;-88
2023/04/09 17:18:25;;;;;;;76.40;36.90;;;;;;;16.97;72.95;101225.08;681544;1266;139260;-88
2023/04/09 17:33:30;;;;;;;95.30;45.70;;;;;;;16.78;73.97;101242.30;681665;1264;139365;-88
2023/04/09 17:48:35;;;;;;;37.80;24.00;;;;;;;16.39;74.40;101256.02;681771;1266;138974;-88
2023/04/09 18:03:40;;;;;;;42.50;23.80;;;;;;;16.00;74.30;101277.35;681386;1266;139139;-87
2023/04/09 18:18:45;;;;;;;35.00;17.70;;;;;;;15.67;75.27;101286.02;681751;1266;139648;-86
2023/04/09 18:33:48;;;;;;;39.10;22.90;;;;;;;15.27;75.84;101300.29;681441;1263;139229;-86
2023/04/09 18:48:52;;;;;;;36.00;19.70;;;;;;;14.88;77.97;101305.09;681777;1263;139582;-87
2023/04/09 19:03:56;;;;;;;54.70;28.40;;;;;;;14.69;77.34;101308.67;681496;1268;139106;-87
2023/04/09 19:19:00;;;;;;;43.70;23.30;;;;;;;14.44;77.78;101311.77;681586;1269;139821;-86
2023/04/09 19:34:04;;;;;;;55.70;25.00;;;;;;;14.28;78.07;101309.77;681548;1266;139490;-84
2023/04/09 19:49:08;;;;;;;79.30;35.90;;;;;;;14.03;78.15;101319.73;681515;1269;139007;-84
2023/04/09 20:04:12;;;;;;;43.00;19.60;;;;;;;13.83;78.44;101330.56;681564;1266;139269;-87
2023/04/09 20:19:18;;;;;;;33.50;16.60;;;;;;;13.69;78.49;101336.02;682140;1266;138937;-87
2023/04/09 20:34:25;;;;;;;46.00;22.70;;;;;;;13.57;77.88;101332.24;681751;1266;138940;-86
2023/04/09 20:49:28;;;;;;;58.80;27.40;;;;;;;13.52;77.53;101331.27;681666;1268;139935;-86
2023/04/09 21:04:32;;;;;;;32.10;16.40;;;;;;;13.44;77.33;101341.04;681693;1278;139000;-87
2023/04/09 21:19:35;;;;;;;29.50;15.60;;;;;;;13.27;76.92;101335.52;681636;1263;139213;-87
2023/04/09 21:34:38;;;;;;;26.10;15.70;;;;;;;13.10;76.72;101334.48;681641;1266;141976;-87
2023/04/09 21:49:42;;;;;;;29.80;14.10;;;;;;;12.94;76.73;101337.88;681321;1268;139190;-87
2023/04/09 22:04:45;;;;;;;56.00;28.70;;;;;;;12.76;76.68;101328.11;681599;1264;139460;-86
2023/04/09 22:19:49;;;;;;;46.80;33.30;;;;;;;12.59;76.41;101318.27;681488;1265;139792;-87
2023/04/09 22:34:53;;;;;;;45.00;22.30;;;;;;;12.26;75.71;101316.95;681634;1268;139272;-87
2023/04/09 22:49:56;;;;;;;34.80;16.40;;;;;;;11.99;75.43;101315.04;681504;1263;139028;-90
2023/04/09 23:05:00;;;;;;;41.30;20.50;;;;;;;11.67;75.27;101317.66;681633;1267;138981;-87
2023/04/09 23:20:06;;;;;;;34.20;16.80;;;;;;;11.43;75.22;101327.33;681638;1266;139199;-86
2023/04/09 23:35:10;;;;;;;14.40;8.90;;;;;;;11.14;75.37;101330.00;681706;1266;139048;-87
2023/04/09 23:50:13;;;;;;;21.60;10.60;;;;;;;10.86;74.83;101326.75;681584;1262;138790;-88
